Time;durP1;ratioP1;P1;durP2;ratioP2;P2;SDS_P1;SDS_P2;PMS_P1;PMS_P2;Temp;Humidity;BMP_temperature;BMP_pressure;BME280_temperature;BME280_humidity;BME280_pressure;Samples;Min_cycle;Max_cycle;Signal;HPM_P1;HPM_P2
2022/11/13 00:00:47;;;;;;;30.77;18.08;;;;;;;;;;5038046;28;20052;-72
2022/11/13 00:03:13;;;;;;;33.78;17.30;;;;;;;;;;5036572;28;20033;-74
2022/11/13 00:05:39;;;;;;;31.05;17.58;;;;;;;;;;5036342;28;20060;-74
2022/11/13 00:08:05;;;;;;;27.45;17.13;;;;;;;;;;5035760;28;20044;-73
2022/11/13 00:10:31;;;;;;;34.15;16.65;;;;;;;;;;5034781;28;20095;-72
2022/11/13 00:12:57;;;;;;;29.20;16.45;;;;;;;;;;5033588;28;20125;-73
2022/11/13 00:15:25;;;;;;;32.53;17.25;;;;;;;;;;5033584;28;20029;-74
2022/11/13 00:17:51;;;;;;;27.58;16.10;;;;;;;;;;5034746;28;20041;-72
2022/11/13 00:20:18;;;;;;;28.90;17.10;;;;;;;;;;5035028;28;20025;-74
2022/11/13 00:22:44;;;;;;;33.60;16.02;;;;;;;;;;5035344;28;20075;-73
2022/11/13 00:25:10;;;;;;;28.98;16.38;;;;;;;;;;5043746;28;20059;-72
2022/11/13 00:27:36;;;;;;;29.92;16.05;;;;;;;;;;5046894;28;20425;-73
2022/11/13 00:30:02;;;;;;;29.90;16.35;;;;;;;;;;5052648;28;20165;-73
2022/11/13 00:32:28;;;;;;;32.25;15.75;;;;;;;;;;5055283;28;20116;-72
2022/11/13 00:34:54;;;;;;;25.33;15.35;;;;;;;;;;5054173;28;20083;-73
2022/11/13 00:37:20;;;;;;;28.92;15.75;;;;;;;;;;5034447;28;20483;-73
2022/11/13 00:39:46;;;;;;;27.63;16.23;;;;;;;;;;5033044;28;20120;-73
2022/11/13 00:42:12;;;;;;;35.58;15.85;;;;;;;;;;5033204;28;20025;-73
2022/11/13 00:44:37;;;;;;;28.27;15.82;;;;;;;;;;5032230;28;20017;-73
2022/11/13 00:47:03;;;;;;;28.42;16.33;;;;;;;;;;5032876;28;20475;-72
2022/11/13 00:49:29;;;;;;;28.20;16.00;;;;;;;;;;5033215;28;20060;-72
2022/11/13 00:51:55;;;;;;;27.25;15.77;;;;;;;;;;5033033;28;20042;-72
2022/11/13 00:54:21;;;;;;;27.58;14.63;;;;;;;;;;5033449;28;20108;-73
2022/11/13 00:56:47;;;;;;;31.95;15.60;;;;;;;;;;5033152;28;20029;-73
2022/11/13 00:59:13;;;;;;;23.88;14.88;;;;;;;;;;5033519;28;20172;-73
2022/11/13 01:01:39;;;;;;;23.92;14.30;;;;;;;;;;5033164;28;20025;-73
2022/11/13 01:04:05;;;;;;;27.02;15.63;;;;;;;;;;5032940;28;20057;-72
2022/11/13 01:06:31;;;;;;;25.95;14.77;;;;;;;;;;5032970;28;20087;-72
2022/11/13 01:09:01;;;;;;;27.48;15.77;;;;;;;;;;5033226;28;20029;-74
2022/11/13 01:11:28;;;;;;;21.42;14.10;;;;;;;;;;5033078;28;20060;-73
2022/11/13 01:13:55;;;;;;;25.60;15.05;;;;;;;;;;5034406;28;20478;-73
2022/11/13 01:16:22;;;;;;;28.08;15.25;;;;;;;;;;5035842;28;20025;-73
2022/11/13 01:18:49;;;;;;;27.30;14.73;;;;;;;;;;5037599;28;20146;-72
2022/11/13 01:21:17;;;;;;;27.27;15.32;;;;;;;;;;5037159;28;20029;-73
2022/11/13 01:23:43;;;;;;;26.90;15.32;;;;;;;;;;5037191;28;20025;-73
2022/11/13 01:26:09;;;;;;;28.17;15.68;;;;;;;;;;5036943;28;20030;-73
2022/11/13 01:28:35;;;;;;;25.70;14.70;;;;;;;;;;5036512;28;20041;-73
2022/11/13 01:31:04;;;;;;;26.77;15.70;;;;;;;;;;5043865;22;20072;-77
2022/11/13 01:33:30;;;;;;;26.52;15.30;;;;;;;;;;5017098;28;20168;-76
2022/11/13 01:36:00;;;;;;;27.70;15.48;;;;;;;;;;5017854;28;20030;-75
2022/11/13 01:38:26;;;;;;;28.92;14.90;;;;;;;;;;5019275;28;20018;-76
2022/11/13 01:40:52;;;;;;;23.80;14.73;;;;;;;;;;5021146;28;20032;-77
2022/11/13 01:43:28;;;;;;;26.70;14.73;;;;;;;;;;5023020;28;20025;-75
2022/11/13 01:45:57;;;;;;;29.90;15.63;;;;;;;;;;5025308;28;20394;-76
2022/11/13 01:48:27;;;;;;;25.67;14.65;;;;;;;;;;5027229;28;20034;-75
2022/11/13 01:50:53;;;;;;;27.88;15.52;;;;;;;;;;5027412;28;20050;-76
2022/11/13 01:53:19;;;;;;;26.80;16.33;;;;;;;;;;5027466;28;20030;-75
2022/11/13 01:55:45;;;;;;;31.35;17.50;;;;;;;;;;5023690;28;20050;-75
2022/11/13 01:58:12;;;;;;;29.33;16.45;;;;;;;;;;5025248;28;20029;-76
2022/11/13 02:00:38;;;;;;;27.17;15.45;;;;;;;;;;5025333;28;20049;-76
2022/11/13 02:03:04;;;;;;;27.92;16.02;;;;;;;;;;5023544;28;20022;-76
2022/11/13 02:05:31;;;;;;;28.17;16.20;;;;;;;;;;5022701;28;20083;-76
2022/11/13 02:07:57;;;;;;;26.67;15.52;;;;;;;;;;5020436;28;20033;-76
2022/11/13 02:10:23;;;;;;;30.33;16.45;;;;;;;;;;5017686;28;20418;-75
2022/11/13 02:12:50;;;;;;;28.00;16.10;;;;;;;;;;5017872;28;20034;-75
2022/11/13 02:15:17;;;;;;;27.35;16.05;;;;;;;;;;5020324;28;20049;-76
2022/11/13 02:17:56;;;;;;;25.45;15.70;;;;;;;;;;5019795;28;20018;-78
2022/11/13 02:20:29;;;;;;;30.30;17.05;;;;;;;;;;5030710;28;20034;-76
2022/11/13 02:23:19;;;;;;;27.60;16.33;;;;;;;;;;5028793;28;20014;-76
2022/11/13 02:25:47;;;;;;;28.15;15.88;;;;;;;;;;5027844;28;20040;-76
2022/11/13 02:28:13;;;;;;;27.20;15.25;;;;;;;;;;5024301;28;20501;-76
2022/11/13 02:30:39;;;;;;;29.25;16.67;;;;;;;;;;5021232;28;20069;-77
2022/11/13 02:33:20;;;;;;;30.73;16.70;;;;;;;;;;5021248;28;20437;-78
2022/11/13 02:35:46;;;;;;;29.63;16.48;;;;;;;;;;5018137;28;20058;-76
2022/11/13 02:38:12;;;;;;;33.15;18.33;;;;;;;;;;5018473;28;20105;-76
2022/11/13 02:40:38;;;;;;;36.67;19.17;;;;;;;;;;5018893;28;20025;-76
2022/11/13 02:43:04;;;;;;;33.70;18.25;;;;;;;;;;5016778;28;20029;-76
2022/11/13 02:45:30;;;;;;;35.85;19.25;;;;;;;;;;5015354;28;20034;-75
2022/11/13 02:47:58;;;;;;;31.17;19.10;;;;;;;;;;5016021;28;20088;-75
2022/11/13 02:50:24;;;;;;;31.73;18.90;;;;;;;;;;5016261;28;20037;-75
2022/11/13 02:52:50;;;;;;;33.05;17.50;;;;;;;;;;5018739;28;20403;-75
2022/11/13 02:55:16;;;;;;;31.08;18.30;;;;;;;;;;5013873;28;20487;-75
2022/11/13 02:57:42;;;;;;;30.10;16.20;;;;;;;;;;5015900;28;20442;-76
2022/11/13 03:00:09;;;;;;;30.13;17.27;;;;;;;;;;5014634;28;20030;-75
2022/11/13 03:02:34;;;;;;;31.67;18.25;;;;;;;;;;5014866;28;20471;-76
2022/11/13 03:05:00;;;;;;;29.60;18.27;;;;;;;;;;5015435;28;20033;-76
2022/11/13 03:07:26;;;;;;;36.78;18.83;;;;;;;;;;5014660;28;20101;-76
2022/11/13 03:09:52;;;;;;;34.22;19.17;;;;;;;;;;5014350;28;20175;-75
2022/11/13 03:12:18;;;;;;;37.20;19.73;;;;;;;;;;5014479;28;20171;-75
2022/11/13 03:14:44;;;;;;;32.22;19.45;;;;;;;;;;5018966;28;20026;-75
2022/11/13 03:17:10;;;;;;;36.75;20.83;;;;;;;;;;5014404;28;20026;-76
2022/11/13 03:19:36;;;;;;;39.95;20.67;;;;;;;;;;5014570;28;20030;-77
2022/11/13 03:22:02;;;;;;;30.90;19.02;;;;;;;;;;5013551;28;20076;-75
2022/11/13 03:24:28;;;;;;;42.50;22.42;;;;;;;;;;5014749;28;20112;-76
2022/11/13 03:26:54;;;;;;;39.53;20.77;;;;;;;;;;5014392;28;20099;-76
2022/11/13 03:29:20;;;;;;;34.47;20.38;;;;;;;;;;5013994;28;20482;-76
2022/11/13 03:31:46;;;;;;;40.65;22.05;;;;;;;;;;5015182;28;20030;-74
2022/11/13 03:34:12;;;;;;;35.10;20.55;;;;;;;;;;5014593;28;20391;-76
2022/11/13 03:36:38;;;;;;;37.70;20.42;;;;;;;;;;5013621;28;20107;-75
2022/11/13 03:39:04;;;;;;;33.90;20.30;;;;;;;;;;5013995;28;20030;-76
2022/11/13 03:41:30;;;;;;;37.22;21.45;;;;;;;;;;5013904;28;20037;-75
2022/11/13 03:43:56;;;;;;;45.42;22.13;;;;;;;;;;5012407;28;20107;-76
2022/11/13 03:46:22;;;;;;;39.13;22.23;;;;;;;;;;5013712;28;20390;-75
2022/11/13 03:48:48;;;;;;;43.15;22.15;;;;;;;;;;5013875;28;20022;-75
2022/11/13 03:51:14;;;;;;;40.38;21.77;;;;;;;;;;5013541;28;20038;-75
2022/11/13 03:53:40;;;;;;;43.17;22.23;;;;;;;;;;5013538;28;20029;-75
2022/11/13 03:56:06;;;;;;;39.65;21.90;;;;;;;;;;5013356;28;20026;-76
2022/11/13 03:58:32;;;;;;;41.08;22.08;;;;;;;;;;5013556;28;20108;-76
2022/11/13 04:00:58;;;;;;;44.70;23.25;;;;;;;;;;5012226;28;20069;-75
2022/11/13 04:03:24;;;;;;;40.08;22.25;;;;;;;;;;5013617;28;20025;-76
2022/11/13 04:05:50;;;;;;;41.80;21.15;;;;;;;;;;5013265;28;20435;-75
2022/11/13 04:08:16;;;;;;;40.42;21.48;;;;;;;;;;5013627;28;20150;-76
2022/11/13 04:10:42;;;;;;;40.42;21.90;;;;;;;;;;5013301;28;20367;-76
2022/11/13 04:13:09;;;;;;;33.83;20.48;;;;;;;;;;5013697;28;20034;-75
2022/11/13 04:15:35;;;;;;;36.55;20.75;;;;;;;;;;5013527;28;20417;-76
2022/11/13 04:18:01;;;;;;;35.22;19.60;;;;;;;;;;5013473;28;20040;-76
2022/11/13 04:20:27;;;;;;;35.97;20.58;;;;;;;;;;5013600;28;20317;-76
2022/11/13 04:22:53;;;;;;;35.30;20.40;;;;;;;;;;5013531;28;20101;-76
2022/11/13 04:25:19;;;;;;;35.55;19.77;;;;;;;;;;5013532;28;20475;-76
2022/11/13 04:27:45;;;;;;;35.67;20.67;;;;;;;;;;5018239;28;20032;-75
2022/11/13 04:30:11;;;;;;;39.95;21.25;;;;;;;;;;5014024;28;20498;-75
2022/11/13 04:32:37;;;;;;;38.35;21.52;;;;;;;;;;5013702;28;20406;-75
2022/11/13 04:35:03;;;;;;;37.35;20.63;;;;;;;;;;5014727;28;20029;-75
2022/11/13 04:37:29;;;;;;;39.05;21.65;;;;;;;;;;5019080;28;20026;-75
2022/11/13 04:39:55;;;;;;;37.38;20.63;;;;;;;;;;5028814;28;20018;-75
2022/11/13 04:45:06;;;;;;;38.13;21.40;;;;;;;;;;5034847;28;20037;-75
2022/11/13 04:47:32;;;;;;;34.63;21.38;;;;;;;;;;5037454;28;20021;-75
2022/11/13 04:49:58;;;;;;;35.08;21.30;;;;;;;;;;5034182;28;20045;-74
2022/11/13 04:52:24;;;;;;;36.88;21.25;;;;;;;;;;5020008;28;20037;-75
2022/11/13 04:54:50;;;;;;;46.15;22.10;;;;;;;;;;5014137;28;20041;-75
2022/11/13 04:57:15;;;;;;;40.45;21.70;;;;;;;;;;5013546;28;20029;-74
2022/11/13 04:59:41;;;;;;;41.08;22.52;;;;;;;;;;5012994;28;20026;-76
2022/11/13 05:02:07;;;;;;;41.03;22.30;;;;;;;;;;5012643;28;20100;-76
2022/11/13 05:04:33;;;;;;;43.78;21.63;;;;;;;;;;5015546;28;20028;-75
2022/11/13 05:06:59;;;;;;;38.38;22.15;;;;;;;;;;5012683;28;20029;-76
2022/11/13 05:09:25;;;;;;;40.05;22.45;;;;;;;;;;5012560;28;20033;-76
2022/11/13 05:11:51;;;;;;;39.72;22.08;;;;;;;;;;5012518;28;20030;-76
2022/11/13 05:14:17;;;;;;;44.50;23.48;;;;;;;;;;5012792;28;20037;-76
2022/11/13 05:16:43;;;;;;;42.50;22.15;;;;;;;;;;5012509;28;20034;-75
2022/11/13 05:19:09;;;;;;;37.72;21.85;;;;;;;;;;5012782;28;20033;-77
2022/11/13 05:21:36;;;;;;;41.15;22.77;;;;;;;;;;5012614;28;20018;-76
2022/11/13 05:24:02;;;;;;;41.92;23.15;;;;;;;;;;5012426;28;20105;-76
2022/11/13 05:26:28;;;;;;;41.95;23.42;;;;;;;;;;5014446;28;20382;-75
2022/11/13 05:28:58;;;;;;;41.72;23.33;;;;;;;;;;5014584;28;20030;-76
2022/11/13 05:31:24;;;;;;;40.50;23.35;;;;;;;;;;5013330;28;20041;-75
2022/11/13 05:33:50;;;;;;;44.13;23.55;;;;;;;;;;5011229;28;20033;-75
2022/11/13 05:36:17;;;;;;;48.63;24.20;;;;;;;;;;5012068;28;20168;-75
2022/11/13 05:38:43;;;;;;;49.72;24.67;;;;;;;;;;5012164;28;20028;-76
2022/11/13 05:41:10;;;;;;;44.55;24.80;;;;;;;;;;5012088;28;20097;-76
2022/11/13 05:43:37;;;;;;;45.25;24.73;;;;;;;;;;5011964;28;20088;-75
2022/11/13 05:46:04;;;;;;;46.00;24.42;;;;;;;;;;5011794;28;20065;-75
2022/11/13 05:48:30;;;;;;;43.67;24.17;;;;;;;;;;5010806;28;20030;-75
2022/11/13 05:51:04;;;;;;;51.42;25.35;;;;;;;;;;5010669;28;20037;-75
2022/11/13 05:53:30;;;;;;;45.05;24.33;;;;;;;;;;5012216;28;20034;-75
2022/11/13 05:56:00;;;;;;;48.60;25.48;;;;;;;;;;5011762;28;20467;-75
2022/11/13 05:58:26;;;;;;;50.20;26.35;;;;;;;;;;5011990;28;20092;-75
2022/11/13 06:00:52;;;;;;;46.40;26.50;;;;;;;;;;5014592;28;20030;-76
2022/11/13 06:03:18;;;;;;;47.35;25.73;;;;;;;;;;5015672;28;20076;-76
2022/11/13 06:05:44;;;;;;;43.60;25.13;;;;;;;;;;5015242;28;20058;-75
2022/11/13 06:08:10;;;;;;;43.55;24.73;;;;;;;;;;5015404;28;20030;-74
2022/11/13 06:10:36;;;;;;;49.13;25.58;;;;;;;;;;5015300;28;20026;-76
2022/11/13 06:13:02;;;;;;;44.88;26.45;;;;;;;;;;5015476;28;20034;-75
2022/11/13 06:15:28;;;;;;;50.15;26.52;;;;;;;;;;5015397;28;20088;-76
2022/11/13 06:17:53;;;;;;;49.97;25.85;;;;;;;;;;5015365;28;20033;-76
2022/11/13 06:20:19;;;;;;;50.20;25.65;;;;;;;;;;5015443;28;20022;-76
2022/11/13 06:22:45;;;;;;;49.42;26.73;;;;;;;;;;5015514;28;20029;-76
2022/11/13 06:25:11;;;;;;;49.60;26.83;;;;;;;;;;5018316;28;20021;-76
2022/11/13 06:27:37;;;;;;;50.30;26.63;;;;;;;;;;5019439;28;20054;-75
2022/11/13 06:30:03;;;;;;;53.15;28.85;;;;;;;;;;5020565;28;20034;-74
2022/11/13 06:32:29;;;;;;;49.83;26.25;;;;;;;;;;5017924;28;20116;-75
2022/11/13 06:34:55;;;;;;;51.90;28.00;;;;;;;;;;5017962;28;20057;-76
2022/11/13 06:37:21;;;;;;;53.55;28.38;;;;;;;;;;5018080;28;20034;-75
2022/11/13 06:39:47;;;;;;;54.45;28.67;;;;;;;;;;5020217;28;20041;-76
2022/11/13 06:42:13;;;;;;;50.30;28.38;;;;;;;;;;5018957;28;20061;-75
2022/11/13 06:44:39;;;;;;;54.33;28.45;;;;;;;;;;5015705;28;20029;-76
2022/11/13 06:47:05;;;;;;;53.45;28.40;;;;;;;;;;5014588;28;20084;-76
2022/11/13 06:49:31;;;;;;;52.03;28.00;;;;;;;;;;5017238;28;20025;-75
2022/11/13 06:51:57;;;;;;;55.30;28.33;;;;;;;;;;5016554;28;20028;-74
2022/11/13 06:54:23;;;;;;;48.70;28.08;;;;;;;;;;5031592;28;20029;-74
2022/11/13 06:56:49;;;;;;;51.85;28.02;;;;;;;;;;5039140;28;20025;-75
2022/11/13 06:59:15;;;;;;;52.95;29.58;;;;;;;;;;5039917;28;20060;-76
2022/11/13 07:01:41;;;;;;;53.05;30.08;;;;;;;;;;5039059;28;20040;-77
2022/11/13 07:04:10;;;;;;;54.60;29.25;;;;;;;;;;5038447;28;20033;-75
2022/11/13 07:06:36;;;;;;;57.65;30.48;;;;;;;;;;5018951;28;20096;-75
2022/11/13 07:09:02;;;;;;;50.67;29.02;;;;;;;;;;5014245;28;20052;-76
2022/11/13 07:11:28;;;;;;;53.03;28.77;;;;;;;;;;5014340;28;20497;-76
2022/11/13 07:13:55;;;;;;;60.83;29.23;;;;;;;;;;5015191;28;20022;-76
2022/11/13 07:16:21;;;;;;;49.58;29.55;;;;;;;;;;5015486;28;20038;-76
2022/11/13 07:18:51;;;;;;;54.10;29.05;;;;;;;;;;5024808;28;20022;-76
2022/11/13 07:21:17;;;;;;;54.67;29.00;;;;;;;;;;5020888;28;20078;-75
2022/11/13 07:23:43;;;;;;;54.10;28.75;;;;;;;;;;5026018;28;20052;-74
2022/11/13 07:26:10;;;;;;;52.97;28.90;;;;;;;;;;5026680;28;20022;-75
2022/11/13 07:28:36;;;;;;;52.53;28.92;;;;;;;;;;5029363;28;20090;-76
2022/11/13 07:31:02;;;;;;;55.35;28.73;;;;;;;;;;5029267;28;20026;-77
2022/11/13 07:33:28;;;;;;;49.22;28.20;;;;;;;;;;5027435;28;20041;-76
2022/11/13 07:35:55;;;;;;;53.65;29.30;;;;;;;;;;5027067;28;20034;-76
2022/11/13 07:38:21;;;;;;;47.58;28.42;;;;;;;;;;5027971;28;20034;-76
2022/11/13 07:40:47;;;;;;;55.78;29.48;;;;;;;;;;5024221;28;20105;-77
2022/11/13 07:43:13;;;;;;;51.08;28.70;;;;;;;;;;5014307;28;20080;-76
2022/11/13 07:45:39;;;;;;;55.40;29.90;;;;;;;;;;5014162;28;20025;-77
2022/11/13 07:48:05;;;;;;;58.75;29.30;;;;;;;;;;5014033;28;20021;-77
2022/11/13 07:50:33;;;;;;;52.92;29.30;;;;;;;;;;5012865;28;20118;-76
2022/11/13 07:53:00;;;;;;;51.83;29.08;;;;;;;;;;5014195;28;20040;-78
2022/11/13 07:55:27;;;;;;;57.15;28.88;;;;;;;;;;5014731;28;20022;-78
2022/11/13 07:57:59;;;;;;;57.45;29.67;;;;;;;;;;5014509;28;20105;-77
2022/11/13 08:00:26;;;;;;;51.13;28.02;;;;;;;;;;5014070;28;20073;-77
2022/11/13 08:02:52;;;;;;;47.70;27.77;;;;;;;;;;5013672;28;20113;-76
2022/11/13 08:05:18;;;;;;;48.17;27.77;;;;;;;;;;5013708;28;20061;-76
2022/11/13 08:07:47;;;;;;;43.13;25.38;;;;;;;;;;5013825;28;20420;-76
2022/11/13 08:10:12;;;;;;;49.47;26.23;;;;;;;;;;5013810;28;20030;-77
2022/11/13 08:12:38;;;;;;;44.08;25.80;;;;;;;;;;5014667;28;20037;-77
2022/11/13 08:15:05;;;;;;;54.97;27.83;;;;;;;;;;5013551;28;20395;-76
2022/11/13 08:17:31;;;;;;;46.65;26.98;;;;;;;;;;5014266;28;20510;-77
2022/11/13 08:19:56;;;;;;;54.30;27.45;;;;;;;;;;5012094;28;20029;-77
2022/11/13 08:22:22;;;;;;;50.90;27.85;;;;;;;;;;5013873;28;20069;-76
2022/11/13 08:24:48;;;;;;;50.88;27.40;;;;;;;;;;5013987;28;20022;-77
2022/11/13 08:27:14;;;;;;;52.85;28.85;;;;;;;;;;5013278;28;20444;-77
2022/11/13 08:29:40;;;;;;;52.55;28.70;;;;;;;;;;5013013;28;20495;-77
2022/11/13 08:32:06;;;;;;;54.03;29.98;;;;;;;;;;5013440;28;20391;-77
2022/11/13 08:34:32;;;;;;;56.67;30.80;;;;;;;;;;5012982;28;20034;-77
2022/11/13 08:36:58;;;;;;;55.15;30.13;;;;;;;;;;5012544;28;20029;-77
2022/11/13 08:39:24;;;;;;;63.15;31.45;;;;;;;;;;5013152;28;20079;-77
2022/11/13 08:41:50;;;;;;;63.95;33.70;;;;;;;;;;5012515;28;20088;-77
2022/11/13 08:44:16;;;;;;;70.75;34.90;;;;;;;;;;5012623;28;20037;-77
2022/11/13 08:46:42;;;;;;;69.22;34.38;;;;;;;;;;5012428;28;20022;-77
2022/11/13 08:49:08;;;;;;;74.25;34.67;;;;;;;;;;5012756;28;20490;-77
2022/11/13 08:51:34;;;;;;;69.28;34.45;;;;;;;;;;5013683;28;20026;-77
2022/11/13 08:54:00;;;;;;;69.72;35.00;;;;;;;;;;5014798;28;20018;-77
2022/11/13 08:56:26;;;;;;;70.70;35.88;;;;;;;;;;5014311;28;20500;-77
2022/11/13 08:58:52;;;;;;;73.82;36.70;;;;;;;;;;5012813;28;20044;-78
2022/11/13 09:01:21;;;;;;;80.70;38.83;;;;;;;;;;5020369;28;20006;-76
2022/11/13 09:03:48;;;;;;;83.50;39.60;;;;;;;;;;5012814;28;20014;-78
2022/11/13 09:06:14;;;;;;;76.93;37.60;;;;;;;;;;5012348;28;20400;-77
2022/11/13 09:08:40;;;;;;;84.60;38.40;;;;;;;;;;5012543;28;20022;-77
2022/11/13 09:11:06;;;;;;;77.70;38.17;;;;;;;;;;5012645;28;20037;-77
2022/11/13 09:13:32;;;;;;;74.50;36.83;;;;;;;;;;5012730;28;20033;-77
2022/11/13 09:15:59;;;;;;;80.20;37.83;;;;;;;;;;5011443;28;20479;-77
2022/11/13 09:18:25;;;;;;;80.20;38.60;;;;;;;;;;5012341;28;20034;-77
2022/11/13 09:20:51;;;;;;;82.30;38.20;;;;;;;;;;5013724;28;20037;-78
2022/11/13 09:23:17;;;;;;;85.30;38.13;;;;;;;;;;5014325;28;20022;-77
2022/11/13 09:25:46;;;;;;;76.10;38.30;;;;;;;;;;5016637;28;20041;-77
2022/11/13 09:28:12;;;;;;;84.03;38.83;;;;;;;;;;5013058;28;20036;-77
2022/11/13 09:30:39;;;;;;;78.32;37.92;;;;;;;;;;5014254;28;20109;-76
2022/11/13 09:33:05;;;;;;;75.38;37.28;;;;;;;;;;5020014;28;20060;-78
2022/11/13 09:35:35;;;;;;;84.03;38.70;;;;;;;;;;5020420;28;20033;-77
2022/11/13 09:38:08;;;;;;;78.72;36.75;;;;;;;;;;5021962;28;20206;-77
2022/11/13 09:40:48;;;;;;;80.82;37.70;;;;;;;;;;5021698;28;20407;-76
2022/11/13 09:43:19;;;;;;;78.18;37.03;;;;;;;;;;5022459;28;20080;-76
2022/11/13 09:45:46;;;;;;;70.57;35.17;;;;;;;;;;5023212;28;20025;-76
2022/11/13 09:48:23;;;;;;;79.13;36.90;;;;;;;;;;5021691;28;20045;-77
2022/11/13 09:50:49;;;;;;;71.75;36.28;;;;;;;;;;5018149;28;20034;-76
2022/11/13 09:53:15;;;;;;;72.95;35.92;;;;;;;;;;5019892;28;20030;-76
2022/11/13 09:55:48;;;;;;;76.32;34.60;;;;;;;;;;5017779;28;20030;-77
2022/11/13 09:58:16;;;;;;;69.90;34.83;;;;;;;;;;5017993;28;20021;-78
2022/11/13 10:00:42;;;;;;;66.28;33.13;;;;;;;;;;5017029;28;20022;-77
2022/11/13 10:03:08;;;;;;;67.22;34.28;;;;;;;;;;5017276;28;20080;-77
2022/11/13 10:05:53;;;;;;;72.20;33.63;;;;;;;;;;5016169;28;20037;-76
2022/11/13 10:08:21;;;;;;;66.00;32.28;;;;;;;;;;5016471;28;20064;-77
2022/11/13 10:10:51;;;;;;;65.47;33.33;;;;;;;;;;5015854;28;20034;-77
2022/11/13 10:13:20;;;;;;;69.15;34.08;;;;;;;;;;5014892;28;20022;-77
2022/11/13 10:15:48;;;;;;;65.30;32.92;;;;;;;;;;5014466;28;20116;-77
2022/11/13 10:18:19;;;;;;;63.65;32.30;;;;;;;;;;5016082;28;20036;-78
2022/11/13 10:20:50;;;;;;;63.25;32.05;;;;;;;;;;5017305;28;20156;-78
2022/11/13 10:23:29;;;;;;;67.75;33.60;;;;;;;;;;5017256;28;20087;-78
2022/11/13 10:25:57;;;;;;;55.85;30.58;;;;;;;;;;5015480;28;20048;-77
2022/11/13 10:28:24;;;;;;;60.47;31.92;;;;;;;;;;5015638;28;20022;-77
2022/11/13 10:30:50;;;;;;;62.35;32.67;;;;;;;;;;5015865;28;20404;-77
2022/11/13 10:33:17;;;;;;;59.15;32.60;;;;;;;;;;5015479;28;20030;-77
2022/11/13 10:36:01;;;;;;;60.38;33.65;;;;;;;;;;5014888;28;20026;-77
2022/11/13 10:38:31;;;;;;;54.85;30.65;;;;;;;;;;5015301;28;20084;-77
2022/11/13 10:41:13;;;;;;;59.75;31.85;;;;;;;;;;5015219;28;20029;-77
2022/11/13 10:43:55;;;;;;;59.25;31.73;;;;;;;;;;5014959;28;20483;-77
2022/11/13 10:46:23;;;;;;;62.28;33.25;;;;;;;;;;5014528;28;20363;-77
2022/11/13 10:48:49;;;;;;;57.25;31.98;;;;;;;;;;5024788;28;20022;-76
2022/11/13 10:51:21;;;;;;;60.42;32.75;;;;;;;;;;5030831;28;20037;-77
2022/11/13 10:53:47;;;;;;;60.85;33.97;;;;;;;;;;5032324;28;20030;-76
2022/11/13 10:56:21;;;;;;;58.70;33.03;;;;;;;;;;5014835;28;20026;-78
2022/11/13 10:59:01;;;;;;;61.80;34.03;;;;;;;;;;5015374;28;20070;-77
2022/11/13 11:01:27;;;;;;;64.15;34.15;;;;;;;;;;5015121;28;20033;-77
2022/11/13 11:03:53;;;;;;;59.70;33.08;;;;;;;;;;5013442;28;20026;-77
2022/11/13 11:06:19;;;;;;;60.50;32.72;;;;;;;;;;5015034;28;20105;-76
2022/11/13 11:08:45;;;;;;;53.08;30.02;;;;;;;;;;5014823;28;20061;-76
2022/11/13 11:14:19;;;;;;;56.75;31.10;;;;;;;;;;5015222;28;20128;-77
2022/11/13 11:16:45;;;;;;;53.63;30.42;;;;;;;;;;5014540;28;20030;-77
2022/11/13 11:19:13;;;;;;;55.20;32.22;;;;;;;;;;5014403;28;20034;-77
2022/11/13 11:21:40;;;;;;;58.47;32.22;;;;;;;;;;5014465;28;20029;-76
2022/11/13 11:24:08;;;;;;;56.63;31.25;;;;;;;;;;5014679;28;20033;-77
2022/11/13 11:26:44;;;;;;;55.25;30.88;;;;;;;;;;5015349;28;20533;-77
2022/11/13 11:29:29;;;;;;;54.92;28.98;;;;;;;;;;5015316;28;20447;-76
2022/11/13 11:32:00;;;;;;;56.97;30.38;;;;;;;;;;5016144;28;20076;-76
2022/11/13 11:34:26;;;;;;;55.13;30.20;;;;;;;;;;5014966;28;20040;-77
2022/11/13 11:36:55;;;;;;;59.10;31.20;;;;;;;;;;5019573;28;20033;-76
2022/11/13 11:39:40;;;;;;;60.28;31.85;;;;;;;;;;5020117;28;20030;-76
2022/11/13 11:42:06;;;;;;;;;;;;;;;;;;5019895;28;20090;-77
2022/11/13 11:44:48;;;;;;;61.53;31.35;;;;;;;;;;5021414;28;20390;-77
2022/11/13 11:47:15;;;;;;;58.83;30.92;;;;;;;;;;5021430;28;20030;-78
2022/11/13 11:49:42;;;;;;;55.80;30.52;;;;;;;;;;5020392;28;20102;-77
2022/11/13 11:52:23;;;;;;;58.17;30.83;;;;;;;;;;5020198;28;20029;-77
2022/11/13 11:55:12;;;;;;;60.35;31.63;;;;;;;;;;5024445;28;20160;-79
2022/11/13 11:57:41;;;;;;;60.72;30.48;;;;;;;;;;5020529;28;20089;-78
2022/11/13 12:00:10;;;;;;;57.05;30.58;;;;;;;;;;5022763;28;20113;-78
2022/11/13 12:02:54;;;;;;;57.55;29.90;;;;;;;;;;5017767;28;20459;-78
2022/11/13 12:05:25;;;;;;;55.25;28.33;;;;;;;;;;5018264;28;20025;-78
2022/11/13 12:07:57;;;;;;;54.85;29.27;;;;;;;;;;5019129;28;20022;-77
2022/11/13 12:10:31;;;;;;;53.03;27.83;;;;;;;;;;5016837;28;20101;-77
2022/11/13 12:13:12;;;;;;;51.60;28.40;;;;;;;;;;5019739;28;20033;-77
2022/11/13 12:15:45;;;;;;;52.00;28.40;;;;;;;;;;5020175;28;20301;-78
2022/11/13 12:18:10;;;;;;;48.15;26.90;;;;;;;;;;5017091;28;20022;-78
2022/11/13 12:20:36;;;;;;;54.53;27.52;;;;;;;;;;5019184;28;20369;-77
2022/11/13 12:23:21;;;;;;;47.60;25.80;;;;;;;;;;5018759;28;20026;-77
2022/11/13 12:25:47;;;;;;;47.92;25.73;;;;;;;;;;5019224;28;20104;-77
2022/11/13 12:28:22;;;;;;;43.67;23.05;;;;;;;;;;5019631;28;20467;-77
2022/11/13 12:31:00;;;;;;;38.20;22.35;;;;;;;;;;5019483;28;20042;-78
2022/11/13 12:33:34;;;;;;;41.60;21.35;;;;;;;;;;5016601;28;20029;-77
2022/11/13 12:36:00;;;;;;;32.30;19.60;;;;;;;;;;5019451;28;20026;-78
2022/11/13 12:38:35;;;;;;;32.83;20.15;;;;;;;;;;5020590;28;20124;-77
2022/11/13 12:41:05;;;;;;;34.22;19.10;;;;;;;;;;5018624;28;20026;-78
2022/11/13 12:43:37;;;;;;;31.05;19.40;;;;;;;;;;5017551;28;20052;-77
2022/11/13 12:46:12;;;;;;;37.45;19.92;;;;;;;;;;5016111;28;20026;-77
2022/11/13 12:48:42;;;;;;;29.92;16.95;;;;;;;;;;5014953;28;20048;-78
2022/11/13 12:51:10;;;;;;;31.70;19.00;;;;;;;;;;5012950;28;20026;-77
2022/11/13 12:53:49;;;;;;;32.63;18.75;;;;;;;;;;5012729;28;20030;-78
2022/11/13 12:56:17;;;;;;;34.83;18.45;;;;;;;;;;5013935;28;20265;-78
2022/11/13 12:59:03;;;;;;;38.10;19.67;;;;;;;;;;5012721;28;20022;-77
2022/11/13 13:01:32;;;;;;;36.47;19.45;;;;;;;;;;5014892;28;20026;-78
2022/11/13 13:03:58;;;;;;;33.53;19.35;;;;;;;;;;5013762;28;20029;-77
2022/11/13 13:06:35;;;;;;;39.20;18.05;;;;;;;;;;5015374;28;20033;-77
2022/11/13 13:09:10;;;;;;;36.03;17.50;;;;;;;;;;5015508;28;20479;-77
2022/11/13 13:11:40;;;;;;;34.00;17.50;;;;;;;;;;5013706;28;20057;-78
2022/11/13 13:14:09;;;;;;;37.20;17.70;;;;;;;;;;5013575;28;20124;-77
2022/11/13 13:16:36;;;;;;;31.80;17.63;;;;;;;;;;5012462;28;20124;-77
2022/11/13 13:19:29;;;;;;;30.65;18.30;;;;;;;;;;5013767;28;20028;-77
2022/11/13 13:21:55;;;;;;;30.25;17.40;;;;;;;;;;5012016;28;20038;-77
2022/11/13 13:24:29;;;;;;;31.50;18.00;;;;;;;;;;5014313;28;20034;-77
2022/11/13 13:26:55;;;;;;;30.73;17.58;;;;;;;;;;5013496;28;20025;-77
2022/11/13 13:29:23;;;;;;;35.80;18.27;;;;;;;;;;5012776;28;20545;-78
2022/11/13 13:32:18;;;;;;;26.85;17.50;;;;;;;;;;5013283;28;20105;-77
2022/11/13 13:34:55;;;;;;;25.52;16.48;;;;;;;;;;4959973;28;20111;-76
2022/11/13 13:37:31;;;;;;;33.30;17.63;;;;;;;;;;5012745;28;20475;-77
2022/11/13 13:40:04;;;;;;;32.03;18.05;;;;;;;;;;5013774;28;20029;-76
2022/11/13 13:42:39;;;;;;;28.40;17.73;;;;;;;;;;5012852;28;20036;-77
2022/11/13 13:45:14;;;;;;;28.27;17.90;;;;;;;;;;5012258;28;20479;-77
2022/11/13 13:47:40;;;;;;;;;;;;;;;;;;5011446;28;20030;-77
2022/11/13 13:50:08;;;;;;;31.05;17.10;;;;;;;;;;5012748;28;20385;-76
2022/11/13 13:52:35;;;;;;;35.08;19.88;;;;;;;;;;5011832;28;20022;-78
2022/11/13 13:55:03;;;;;;;57.03;26.77;;;;;;;;;;5013337;28;20030;-77
2022/11/13 13:57:29;;;;;;;33.47;20.42;;;;;;;;;;5013197;28;20387;-76
2022/11/13 13:59:55;;;;;;;29.52;17.73;;;;;;;;;;5013999;28;20119;-76
2022/11/13 14:02:22;;;;;;;33.55;18.40;;;;;;;;;;5014131;28;20494;-76
2022/11/13 14:04:49;;;;;;;31.05;17.25;;;;;;;;;;5012297;28;20493;-76
2022/11/13 14:07:20;;;;;;;33.25;17.70;;;;;;;;;;5012349;28;20105;-77
2022/11/13 14:09:46;;;;;;;33.60;18.20;;;;;;;;;;5013224;28;20383;-75
2022/11/13 14:12:22;;;;;;;32.17;17.98;;;;;;;;;;5012517;28;20022;-77
2022/11/13 14:14:48;;;;;;;33.00;18.80;;;;;;;;;;5011312;28;20032;-76
2022/11/13 14:17:21;;;;;;;33.05;18.27;;;;;;;;;;5011746;28;20030;-76
2022/11/13 14:19:51;;;;;;;36.63;18.95;;;;;;;;;;5012299;28;20442;-76
2022/11/13 14:22:17;;;;;;;39.28;18.52;;;;;;;;;;5013925;28;20032;-76
2022/11/13 14:24:52;;;;;;;33.15;19.77;;;;;;;;;;5015801;28;20087;-75
2022/11/13 14:27:21;;;;;;;33.70;19.15;;;;;;;;;;5015677;28;20026;-77
2022/11/13 14:29:48;;;;;;;36.38;20.52;;;;;;;;;;5015995;28;20068;-77